sensor_id;sensor_type;location;lat;lon;timestamp;P1;durP1;ratioP1;P2;durP2;ratioP2
7835;SDS011;3963;42.658;23.298;2022-10-19T00:01:07;11.43;;;5.50;;
7835;SDS011;3963;42.658;23.298;2022-10-19T00:03:36;12.67;;;5.93;;
7835;SDS011;3963;42.658;23.298;2022-10-19T00:06:11;9.60;;;5.37;;
7835;SDS011;3963;42.658;23.298;2022-10-19T00:08:41;8.00;;;5.50;;
7835;SDS011;3963;42.658;23.298;2022-10-19T00:11:09;9.27;;;5.53;;
7835;SDS011;3963;42.658;23.298;2022-10-19T00:13:36;11.73;;;6.03;;
7835;SDS011;3963;42.658;23.298;2022-10-19T00:16:06;13.03;;;5.97;;
7835;SDS011;3963;42.658;23.298;2022-10-19T00:18:34;11.30;;;6.53;;
7835;SDS011;3963;42.658;23.298;2022-10-19T00:21:02;11.77;;;6.27;;
7835;SDS011;3963;42.658;23.298;2022-10-19T00:23:29;11.27;;;6.00;;
7835;SDS011;3963;42.658;23.298;2022-10-19T00:25:58;10.47;;;6.30;;
7835;SDS011;3963;42.658;23.298;2022-10-19T00:28:25;10.83;;;6.23;;
7835;SDS011;3963;42.658;23.298;2022-10-19T00:30:52;11.27;;;6.10;;
7835;SDS011;3963;42.658;23.298;2022-10-19T00:33:19;16.87;;;7.10;;
7835;SDS011;3963;42.658;23.298;2022-10-19T00:35:46;11.20;;;5.53;;
7835;SDS011;3963;42.658;23.298;2022-10-19T00:38:14;10.73;;;6.07;;
7835;SDS011;3963;42.658;23.298;2022-10-19T00:40:42;13.90;;;6.40;;
7835;SDS011;3963;42.658;23.298;2022-10-19T00:43:13;8.57;;;5.53;;
7835;SDS011;3963;42.658;23.298;2022-10-19T00:45:41;9.30;;;5.27;;
7835;SDS011;3963;42.658;23.298;2022-10-19T00:48:08;8.77;;;4.67;;
7835;SDS011;3963;42.658;23.298;2022-10-19T00:50:38;10.20;;;4.67;;
7835;SDS011;3963;42.658;23.298;2022-10-19T00:53:06;8.57;;;5.33;;
7835;SDS011;3963;42.658;23.298;2022-10-19T00:55:33;8.93;;;4.90;;
7835;SDS011;3963;42.658;23.298;2022-10-19T00:58:02;9.17;;;4.67;;
7835;SDS011;3963;42.658;23.298;2022-10-19T01:00:30;7.40;;;4.83;;
7835;SDS011;3963;42.658;23.298;2022-10-19T01:02:58;8.93;;;4.67;;
7835;SDS011;3963;42.658;23.298;2022-10-19T01:05:25;8.63;;;4.57;;
7835;SDS011;3963;42.658;23.298;2022-10-19T01:07:53;8.37;;;4.80;;
7835;SDS011;3963;42.658;23.298;2022-10-19T01:10:23;8.00;;;4.73;;
7835;SDS011;3963;42.658;23.298;2022-10-19T01:13:08;7.23;;;4.53;;
7835;SDS011;3963;42.658;23.298;2022-10-19T01:15:45;7.53;;;4.10;;
7835;SDS011;3963;42.658;23.298;2022-10-19T01:18:20;8.67;;;5.00;;
7835;SDS011;3963;42.658;23.298;2022-10-19T01:21:13;8.67;;;4.53;;
7835;SDS011;3963;42.658;23.298;2022-10-19T01:30:08;9.00;;;4.80;;
7835;SDS011;3963;42.658;23.298;2022-10-19T01:35:26;9.23;;;4.83;;
7835;SDS011;3963;42.658;23.298;2022-10-19T01:38:00;13.13;;;5.03;;
7835;SDS011;3963;42.658;23.298;2022-10-19T01:40:35;15.17;;;4.73;;
7835;SDS011;3963;42.658;23.298;2022-10-19T01:43:09;11.63;;;5.40;;
7835;SDS011;3963;42.658;23.298;2022-10-19T01:45:44;11.77;;;5.20;;
7835;SDS011;3963;42.658;23.298;2022-10-19T01:48:14;12.30;;;5.17;;
7835;SDS011;3963;42.658;23.298;2022-10-19T01:50:46;8.00;;;4.37;;
7835;SDS011;3963;42.658;23.298;2022-10-19T01:53:17;11.70;;;4.73;;
7835;SDS011;3963;42.658;23.298;2022-10-19T01:55:46;11.83;;;4.90;;
7835;SDS011;3963;42.658;23.298;2022-10-19T01:58:17;9.43;;;5.00;;
7835;SDS011;3963;42.658;23.298;2022-10-19T02:00:51;10.70;;;5.13;;
7835;SDS011;3963;42.658;23.298;2022-10-19T02:03:21;9.93;;;5.57;;
7835;SDS011;3963;42.658;23.298;2022-10-19T02:05:50;12.80;;;5.17;;
7835;SDS011;3963;42.658;23.298;2022-10-19T02:08:19;13.10;;;5.53;;
7835;SDS011;3963;42.658;23.298;2022-10-19T02:10:50;13.67;;;5.97;;
7835;SDS011;3963;42.658;23.298;2022-10-19T02:13:17;8.47;;;5.47;;
7835;SDS011;3963;42.658;23.298;2022-10-19T02:15:46;12.43;;;5.53;;
7835;SDS011;3963;42.658;23.298;2022-10-19T02:18:22;9.03;;;4.80;;
7835;SDS011;3963;42.658;23.298;2022-10-19T02:20:53;10.70;;;4.87;;
7835;SDS011;3963;42.658;23.298;2022-10-19T02:23:21;7.63;;;4.93;;
7835;SDS011;3963;42.658;23.298;2022-10-19T02:25:51;7.50;;;5.30;;
7835;SDS011;3963;42.658;23.298;2022-10-19T02:28:18;8.40;;;5.07;;
7835;SDS011;3963;42.658;23.298;2022-10-19T02:30:45;9.57;;;5.93;;
7835;SDS011;3963;42.658;23.298;2022-10-19T02:33:15;10.10;;;5.90;;
7835;SDS011;3963;42.658;23.298;2022-10-19T02:35:42;8.27;;;6.10;;
7835;SDS011;3963;42.658;23.298;2022-10-19T02:38:09;9.43;;;5.43;;
7835;SDS011;3963;42.658;23.298;2022-10-19T02:40:42;11.70;;;5.90;;
7835;SDS011;3963;42.658;23.298;2022-10-19T02:43:14;11.07;;;6.27;;
7835;SDS011;3963;42.658;23.298;2022-10-19T02:45:46;13.80;;;6.60;;
7835;SDS011;3963;42.658;23.298;2022-10-19T02:48:19;9.43;;;6.60;;
7835;SDS011;3963;42.658;23.298;2022-10-19T02:50:48;9.40;;;6.37;;
7835;SDS011;3963;42.658;23.298;2022-10-19T02:53:16;11.57;;;7.00;;
7835;SDS011;3963;42.658;23.298;2022-10-19T02:55:43;13.03;;;6.40;;
7835;SDS011;3963;42.658;23.298;2022-10-19T02:58:12;8.80;;;6.37;;
7835;SDS011;3963;42.658;23.298;2022-10-19T03:00:40;11.37;;;6.83;;
7835;SDS011;3963;42.658;23.298;2022-10-19T03:03:08;9.63;;;6.93;;
7835;SDS011;3963;42.658;23.298;2022-10-19T03:05:36;8.90;;;6.70;;
7835;SDS011;3963;42.658;23.298;2022-10-19T03:08:03;13.47;;;6.47;;
7835;SDS011;3963;42.658;23.298;2022-10-19T03:10:30;9.57;;;6.17;;
7835;SDS011;3963;42.658;23.298;2022-10-19T03:12:57;8.53;;;6.53;;
7835;SDS011;3963;42.658;23.298;2022-10-19T03:15:24;13.03;;;6.13;;
7835;SDS011;3963;42.658;23.298;2022-10-19T03:17:53;10.77;;;6.27;;
7835;SDS011;3963;42.658;23.298;2022-10-19T03:20:21;12.13;;;5.93;;
7835;SDS011;3963;42.658;23.298;2022-10-19T03:22:49;8.73;;;5.27;;
7835;SDS011;3963;42.658;23.298;2022-10-19T03:25:16;7.97;;;5.90;;
7835;SDS011;3963;42.658;23.298;2022-10-19T03:27:44;11.70;;;5.93;;
7835;SDS011;3963;42.658;23.298;2022-10-19T03:30:11;12.77;;;6.23;;
7835;SDS011;3963;42.658;23.298;2022-10-19T03:32:38;10.07;;;5.70;;
7835;SDS011;3963;42.658;23.298;2022-10-19T03:35:05;12.80;;;5.70;;
7835;SDS011;3963;42.658;23.298;2022-10-19T03:37:33;11.77;;;6.03;;
7835;SDS011;3963;42.658;23.298;2022-10-19T03:40:01;9.37;;;6.63;;
7835;SDS011;3963;42.658;23.298;2022-10-19T03:42:28;14.00;;;6.17;;
7835;SDS011;3963;42.658;23.298;2022-10-19T03:44:55;10.67;;;6.07;;
7835;SDS011;3963;42.658;23.298;2022-10-19T03:47:23;14.13;;;7.63;;
7835;SDS011;3963;42.658;23.298;2022-10-19T03:49:49;11.97;;;6.33;;
7835;SDS011;3963;42.658;23.298;2022-10-19T03:52:17;11.80;;;7.37;;
7835;SDS011;3963;42.658;23.298;2022-10-19T03:54:44;10.60;;;5.90;;
7835;SDS011;3963;42.658;23.298;2022-10-19T03:57:13;11.87;;;7.13;;
7835;SDS011;3963;42.658;23.298;2022-10-19T03:59:40;13.07;;;6.93;;
7835;SDS011;3963;42.658;23.298;2022-10-19T04:02:07;11.83;;;6.83;;
7835;SDS011;3963;42.658;23.298;2022-10-19T04:04:34;14.97;;;6.97;;
7835;SDS011;3963;42.658;23.298;2022-10-19T04:07:00;18.40;;;6.40;;
7835;SDS011;3963;42.658;23.298;2022-10-19T04:09:27;15.07;;;7.60;;
7835;SDS011;3963;42.658;23.298;2022-10-19T04:11:54;18.43;;;7.60;;
7835;SDS011;3963;42.658;23.298;2022-10-19T04:14:22;10.80;;;6.13;;
7835;SDS011;3963;42.658;23.298;2022-10-19T04:16:50;14.27;;;7.63;;
7835;SDS011;3963;42.658;23.298;2022-10-19T04:19:16;17.23;;;7.60;;
7835;SDS011;3963;42.658;23.298;2022-10-19T04:21:46;13.97;;;7.70;;
7835;SDS011;3963;42.658;23.298;2022-10-19T04:24:14;14.13;;;7.77;;
7835;SDS011;3963;42.658;23.298;2022-10-19T04:26:43;18.67;;;7.87;;
7835;SDS011;3963;42.658;23.298;2022-10-19T04:29:12;12.40;;;7.17;;
7835;SDS011;3963;42.658;23.298;2022-10-19T04:31:41;14.97;;;8.33;;
7835;SDS011;3963;42.658;23.298;2022-10-19T04:34:08;19.37;;;8.90;;
7835;SDS011;3963;42.658;23.298;2022-10-19T04:36:34;17.13;;;7.33;;
7835;SDS011;3963;42.658;23.298;2022-10-19T04:39:02;15.43;;;7.37;;
7835;SDS011;3963;42.658;23.298;2022-10-19T04:41:29;15.57;;;7.70;;
7835;SDS011;3963;42.658;23.298;2022-10-19T04:43:58;18.30;;;8.20;;
7835;SDS011;3963;42.658;23.298;2022-10-19T04:46:27;13.07;;;7.20;;
7835;SDS011;3963;42.658;23.298;2022-10-19T04:48:56;14.20;;;6.73;;
7835;SDS011;3963;42.658;23.298;2022-10-19T04:51:24;13.00;;;6.77;;
7835;SDS011;3963;42.658;23.298;2022-10-19T04:53:51;20.83;;;6.87;;
7835;SDS011;3963;42.658;23.298;2022-10-19T04:56:20;10.20;;;6.30;;
7835;SDS011;3963;42.658;23.298;2022-10-19T04:58:52;14.67;;;7.07;;
7835;SDS011;3963;42.658;23.298;2022-10-19T05:01:20;17.37;;;7.53;;
7835;SDS011;3963;42.658;23.298;2022-10-19T05:03:51;16.23;;;9.33;;
7835;SDS011;3963;42.658;23.298;2022-10-19T05:06:21;19.53;;;10.00;;
7835;SDS011;3963;42.658;23.298;2022-10-19T05:08:49;17.17;;;9.20;;
7835;SDS011;3963;42.658;23.298;2022-10-19T05:11:17;23.40;;;11.37;;
7835;SDS011;3963;42.658;23.298;2022-10-19T05:13:44;28.63;;;11.80;;
7835;SDS011;3963;42.658;23.298;2022-10-19T05:16:12;23.77;;;11.43;;
7835;SDS011;3963;42.658;23.298;2022-10-19T05:18:40;24.70;;;11.17;;
7835;SDS011;3963;42.658;23.298;2022-10-19T05:21:08;25.90;;;11.80;;
7835;SDS011;3963;42.658;23.298;2022-10-19T05:23:39;39.00;;;11.90;;
7835;SDS011;3963;42.658;23.298;2022-10-19T05:26:07;25.23;;;10.57;;
7835;SDS011;3963;42.658;23.298;2022-10-19T05:28:36;25.53;;;10.87;;
7835;SDS011;3963;42.658;23.298;2022-10-19T05:31:04;29.47;;;10.13;;
7835;SDS011;3963;42.658;23.298;2022-10-19T05:33:32;25.57;;;10.07;;
7835;SDS011;3963;42.658;23.298;2022-10-19T05:35:59;28.57;;;10.40;;
7835;SDS011;3963;42.658;23.298;2022-10-19T05:38:36;18.60;;;9.83;;
7835;SDS011;3963;42.658;23.298;2022-10-19T05:41:04;14.37;;;9.20;;
7835;SDS011;3963;42.658;23.298;2022-10-19T05:43:31;20.63;;;8.77;;
7835;SDS011;3963;42.658;23.298;2022-10-19T05:46:01;26.80;;;8.73;;
7835;SDS011;3963;42.658;23.298;2022-10-19T05:48:29;25.07;;;10.30;;
7835;SDS011;3963;42.658;23.298;2022-10-19T05:50:57;23.57;;;10.83;;
7835;SDS011;3963;42.658;23.298;2022-10-19T05:53:25;21.17;;;10.57;;
7835;SDS011;3963;42.658;23.298;2022-10-19T05:55:52;28.47;;;10.70;;
7835;SDS011;3963;42.658;23.298;2022-10-19T05:58:21;30.57;;;10.77;;
7835;SDS011;3963;42.658;23.298;2022-10-19T06:00:52;19.87;;;9.80;;
7835;SDS011;3963;42.658;23.298;2022-10-19T06:03:19;29.50;;;11.27;;
7835;SDS011;3963;42.658;23.298;2022-10-19T06:05:47;21.50;;;10.90;;
7835;SDS011;3963;42.658;23.298;2022-10-19T06:08:14;20.60;;;10.67;;
7835;SDS011;3963;42.658;23.298;2022-10-19T06:10:42;23.47;;;10.97;;
7835;SDS011;3963;42.658;23.298;2022-10-19T06:13:10;20.93;;;11.83;;
7835;SDS011;3963;42.658;23.298;2022-10-19T06:15:39;21.87;;;10.63;;
7835;SDS011;3963;42.658;23.298;2022-10-19T06:18:06;13.43;;;9.13;;
7835;SDS011;3963;42.658;23.298;2022-10-19T06:20:35;12.03;;;9.10;;
7835;SDS011;3963;42.658;23.298;2022-10-19T06:23:02;15.03;;;9.20;;
7835;SDS011;3963;42.658;23.298;2022-10-19T06:25:30;16.77;;;8.67;;
7835;SDS011;3963;42.658;23.298;2022-10-19T06:27:58;14.53;;;9.33;;
7835;SDS011;3963;42.658;23.298;2022-10-19T06:30:25;15.87;;;8.77;;
7835;SDS011;3963;42.658;23.298;2022-10-19T06:32:54;19.70;;;9.20;;
7835;SDS011;3963;42.658;23.298;2022-10-19T06:35:21;16.97;;;9.40;;
7835;SDS011;3963;42.658;23.298;2022-10-19T06:37:47;18.93;;;9.90;;
7835;SDS011;3963;42.658;23.298;2022-10-19T06:40:14;20.27;;;12.90;;
7835;SDS011;3963;42.658;23.298;2022-10-19T06:42:41;18.37;;;12.93;;
7835;SDS011;3963;42.658;23.298;2022-10-19T06:45:09;22.63;;;11.80;;
7835;SDS011;3963;42.658;23.298;2022-10-19T06:47:45;18.27;;;10.83;;
7835;SDS011;3963;42.658;23.298;2022-10-19T06:50:13;16.47;;;10.90;;
7835;SDS011;3963;42.658;23.298;2022-10-19T06:52:40;16.77;;;10.53;;
7835;SDS011;3963;42.658;23.298;2022-10-19T06:55:07;14.87;;;10.20;;
7835;SDS011;3963;42.658;23.298;2022-10-19T06:57:35;17.63;;;10.43;;
7835;SDS011;3963;42.658;23.298;2022-10-19T07:00:02;17.37;;;11.13;;
7835;SDS011;3963;42.658;23.298;2022-10-19T07:02:30;19.63;;;10.70;;
7835;SDS011;3963;42.658;23.298;2022-10-19T07:04:57;20.03;;;10.10;;
7835;SDS011;3963;42.658;23.298;2022-10-19T07:07:26;21.00;;;11.80;;
7835;SDS011;3963;42.658;23.298;2022-10-19T07:09:53;26.70;;;11.73;;
7835;SDS011;3963;42.658;23.298;2022-10-19T07:12:19;20.87;;;10.73;;
7835;SDS011;3963;42.658;23.298;2022-10-19T07:14:46;23.43;;;11.27;;
7835;SDS011;3963;42.658;23.298;2022-10-19T07:17:13;17.47;;;9.87;;
7835;SDS011;3963;42.658;23.298;2022-10-19T07:19:40;16.60;;;10.60;;
7835;SDS011;3963;42.658;23.298;2022-10-19T07:22:07;18.00;;;10.43;;
7835;SDS011;3963;42.658;23.298;2022-10-19T07:24:36;19.60;;;10.70;;
7835;SDS011;3963;42.658;23.298;2022-10-19T07:27:02;22.60;;;10.07;;
7835;SDS011;3963;42.658;23.298;2022-10-19T07:29:29;23.50;;;10.63;;
7835;SDS011;3963;42.658;23.298;2022-10-19T07:31:56;17.93;;;10.37;;
7835;SDS011;3963;42.658;23.298;2022-10-19T07:34:25;17.97;;;10.50;;
7835;SDS011;3963;42.658;23.298;2022-10-19T07:36:51;15.03;;;10.50;;
7835;SDS011;3963;42.658;23.298;2022-10-19T07:39:19;21.60;;;11.73;;
7835;SDS011;3963;42.658;23.298;2022-10-19T07:41:47;25.67;;;11.77;;
7835;SDS011;3963;42.658;23.298;2022-10-19T07:44:14;21.27;;;12.87;;
7835;SDS011;3963;42.658;23.298;2022-10-19T07:46:41;19.73;;;11.57;;
7835;SDS011;3963;42.658;23.298;2022-10-19T07:49:09;24.00;;;11.90;;
7835;SDS011;3963;42.658;23.298;2022-10-19T07:51:40;23.10;;;12.80;;
7835;SDS011;3963;42.658;23.298;2022-10-19T07:54:07;26.33;;;12.87;;
7835;SDS011;3963;42.658;23.298;2022-10-19T07:56:34;23.53;;;13.03;;
7835;SDS011;3963;42.658;23.298;2022-10-19T07:59:03;22.70;;;12.97;;
7835;SDS011;3963;42.658;23.298;2022-10-19T08:01:30;22.83;;;12.90;;
7835;SDS011;3963;42.658;23.298;2022-10-19T08:03:58;25.50;;;13.03;;
7835;SDS011;3963;42.658;23.298;2022-10-19T08:06:26;27.17;;;14.53;;
7835;SDS011;3963;42.658;23.298;2022-10-19T08:08:54;28.53;;;16.47;;
7835;SDS011;3963;42.658;23.298;2022-10-19T08:11:22;33.40;;;15.80;;
7835;SDS011;3963;42.658;23.298;2022-10-19T08:13:52;25.10;;;15.00;;
7835;SDS011;3963;42.658;23.298;2022-10-19T08:16:22;31.53;;;15.93;;
7835;SDS011;3963;42.658;23.298;2022-10-19T08:18:51;30.73;;;14.47;;
7835;SDS011;3963;42.658;23.298;2022-10-19T08:21:18;28.83;;;15.77;;
7835;SDS011;3963;42.658;23.298;2022-10-19T08:23:45;26.23;;;14.13;;
7835;SDS011;3963;42.658;23.298;2022-10-19T08:26:12;23.63;;;12.57;;
7835;SDS011;3963;42.658;23.298;2022-10-19T08:28:39;23.77;;;12.20;;
7835;SDS011;3963;42.658;23.298;2022-10-19T08:31:09;21.50;;;12.17;;
7835;SDS011;3963;42.658;23.298;2022-10-19T08:33:39;24.20;;;11.10;;
7835;SDS011;3963;42.658;23.298;2022-10-19T08:36:06;22.40;;;10.53;;
7835;SDS011;3963;42.658;23.298;2022-10-19T08:38:35;15.43;;;9.00;;
7835;SDS011;3963;42.658;23.298;2022-10-19T08:41:04;15.53;;;8.83;;
7835;SDS011;3963;42.658;23.298;2022-10-19T08:43:38;16.37;;;8.60;;
7835;SDS011;3963;42.658;23.298;2022-10-19T08:46:15;13.67;;;7.90;;
7835;SDS011;3963;42.658;23.298;2022-10-19T08:48:50;11.47;;;7.57;;
7835;SDS011;3963;42.658;23.298;2022-10-19T08:51:17;15.43;;;8.13;;
7835;SDS011;3963;42.658;23.298;2022-10-19T08:53:48;16.10;;;8.80;;
7835;SDS011;3963;42.658;23.298;2022-10-19T08:56:20;16.10;;;7.07;;
7835;SDS011;3963;42.658;23.298;2022-10-19T08:58:56;12.83;;;6.33;;
7835;SDS011;3963;42.658;23.298;2022-10-19T09:01:36;14.10;;;6.07;;
7835;SDS011;3963;42.658;23.298;2022-10-19T09:04:11;8.50;;;5.20;;
7835;SDS011;3963;42.658;23.298;2022-10-19T09:06:45;10.60;;;5.10;;
7835;SDS011;3963;42.658;23.298;2022-10-19T09:09:17;6.33;;;4.40;;
7835;SDS011;3963;42.658;23.298;2022-10-19T09:11:46;8.17;;;4.17;;
7835;SDS011;3963;42.658;23.298;2022-10-19T09:14:17;7.00;;;3.87;;
7835;SDS011;3963;42.658;23.298;2022-10-19T09:16:46;9.03;;;4.63;;
7835;SDS011;3963;42.658;23.298;2022-10-19T09:19:17;8.83;;;4.40;;
7835;SDS011;3963;42.658;23.298;2022-10-19T09:21:50;7.53;;;4.30;;
7835;SDS011;3963;42.658;23.298;2022-10-19T09:24:25;9.77;;;4.50;;
7835;SDS011;3963;42.658;23.298;2022-10-19T09:26:55;13.30;;;4.27;;
7835;SDS011;3963;42.658;23.298;2022-10-19T09:29:25;13.10;;;4.17;;
7835;SDS011;3963;42.658;23.298;2022-10-19T09:31:58;6.90;;;3.90;;
7835;SDS011;3963;42.658;23.298;2022-10-19T09:34:29;7.60;;;3.60;;
7835;SDS011;3963;42.658;23.298;2022-10-19T09:36:59;4.97;;;3.67;;
7835;SDS011;3963;42.658;23.298;2022-10-19T09:39:27;8.67;;;3.63;;
7835;SDS011;3963;42.658;23.298;2022-10-19T09:41:56;6.47;;;3.90;;
7835;SDS011;3963;42.658;23.298;2022-10-19T09:44:24;4.67;;;3.30;;
7835;SDS011;3963;42.658;23.298;2022-10-19T09:46:57;9.13;;;3.70;;
7835;SDS011;3963;42.658;23.298;2022-10-19T09:49:39;4.60;;;3.37;;
7835;SDS011;3963;42.658;23.298;2022-10-19T09:52:21;5.20;;;3.70;;
7835;SDS011;3963;42.658;23.298;2022-10-19T09:54:58;6.40;;;3.27;;
7835;SDS011;3963;42.658;23.298;2022-10-19T09:57:27;8.03;;;3.63;;
7835;SDS011;3963;42.658;23.298;2022-10-19T09:59:54;8.03;;;3.67;;
7835;SDS011;3963;42.658;23.298;2022-10-19T10:02:27;7.50;;;4.10;;
7835;SDS011;3963;42.658;23.298;2022-10-19T10:05:02;7.73;;;3.27;;
7835;SDS011;3963;42.658;23.298;2022-10-19T10:07:32;4.87;;;3.30;;
7835;SDS011;3963;42.658;23.298;2022-10-19T10:10:02;4.53;;;3.30;;
7835;SDS011;3963;42.658;23.298;2022-10-19T10:12:35;7.00;;;3.40;;
7835;SDS011;3963;42.658;23.298;2022-10-19T10:15:05;8.53;;;3.60;;
7835;SDS011;3963;42.658;23.298;2022-10-19T10:17:33;7.67;;;3.33;;
7835;SDS011;3963;42.658;23.298;2022-10-19T10:20:04;4.03;;;3.20;;
7835;SDS011;3963;42.658;23.298;2022-10-19T10:22:50;4.77;;;3.10;;
7835;SDS011;3963;42.658;23.298;2022-10-19T10:25:23;4.73;;;3.43;;
7835;SDS011;3963;42.658;23.298;2022-10-19T10:27:53;5.13;;;3.00;;
7835;SDS011;3963;42.658;23.298;2022-10-19T10:30:21;5.37;;;2.80;;
7835;SDS011;3963;42.658;23.298;2022-10-19T10:32:50;6.37;;;3.63;;
7835;SDS011;3963;42.658;23.298;2022-10-19T10:35:22;6.57;;;3.83;;
7835;SDS011;3963;42.658;23.298;2022-10-19T10:37:51;4.40;;;3.60;;
7835;SDS011;3963;42.658;23.298;2022-10-19T10:40:20;14.00;;;3.97;;
7835;SDS011;3963;42.658;23.298;2022-10-19T10:42:49;4.47;;;3.10;;
7835;SDS011;3963;42.658;23.298;2022-10-19T10:45:18;7.17;;;3.57;;
7835;SDS011;3963;42.658;23.298;2022-10-19T10:47:49;4.03;;;3.03;;
7835;SDS011;3963;42.658;23.298;2022-10-19T10:50:19;8.83;;;3.40;;
7835;SDS011;3963;42.658;23.298;2022-10-19T10:52:56;6.87;;;2.80;;
7835;SDS011;3963;42.658;23.298;2022-10-19T10:55:24;9.40;;;3.33;;
7835;SDS011;3963;42.658;23.298;2022-10-19T10:57:52;4.57;;;3.00;;
7835;SDS011;3963;42.658;23.298;2022-10-19T11:00:28;3.87;;;2.73;;
7835;SDS011;3963;42.658;23.298;2022-10-19T11:02:55;5.23;;;3.27;;
7835;SDS011;3963;42.658;23.298;2022-10-19T11:05:29;7.70;;;3.40;;
7835;SDS011;3963;42.658;23.298;2022-10-19T11:08:02;8.17;;;3.77;;
7835;SDS011;3963;42.658;23.298;2022-10-19T11:10:39;4.77;;;3.23;;
7835;SDS011;3963;42.658;23.298;2022-10-19T11:13:12;5.30;;;3.07;;
7835;SDS011;3963;42.658;23.298;2022-10-19T11:15:45;9.07;;;3.20;;
7835;SDS011;3963;42.658;23.298;2022-10-19T11:18:18;9.03;;;3.00;;
7835;SDS011;3963;42.658;23.298;2022-10-19T11:20:54;4.10;;;2.80;;
7835;SDS011;3963;42.658;23.298;2022-10-19T11:23:39;5.97;;;2.93;;
7835;SDS011;3963;42.658;23.298;2022-10-19T11:26:18;5.13;;;3.27;;
7835;SDS011;3963;42.658;23.298;2022-10-19T11:29:01;4.20;;;2.93;;
7835;SDS011;3963;42.658;23.298;2022-10-19T11:31:40;6.27;;;3.40;;
7835;SDS011;3963;42.658;23.298;2022-10-19T11:34:15;5.20;;;3.70;;
7835;SDS011;3963;42.658;23.298;2022-10-19T11:37:01;5.27;;;3.30;;
7835;SDS011;3963;42.658;23.298;2022-10-19T11:39:42;4.30;;;2.90;;
7835;SDS011;3963;42.658;23.298;2022-10-19T11:42:17;4.33;;;2.83;;
7835;SDS011;3963;42.658;23.298;2022-10-19T11:45:01;5.27;;;2.73;;
7835;SDS011;3963;42.658;23.298;2022-10-19T11:47:48;6.20;;;2.57;;
7835;SDS011;3963;42.658;23.298;2022-10-19T11:50:29;3.50;;;2.57;;
7835;SDS011;3963;42.658;23.298;2022-10-19T11:53:08;6.83;;;2.77;;
7835;SDS011;3963;42.658;23.298;2022-10-19T11:55:43;9.27;;;3.23;;
7835;SDS011;3963;42.658;23.298;2022-10-19T11:58:25;8.37;;;3.17;;
7835;SDS011;3963;42.658;23.298;2022-10-19T12:01:02;5.20;;;2.80;;
7835;SDS011;3963;42.658;23.298;2022-10-19T12:03:49;8.27;;;3.03;;
7835;SDS011;3963;42.658;23.298;2022-10-19T12:06:30;6.30;;;3.00;;
7835;SDS011;3963;42.658;23.298;2022-10-19T12:09:12;9.03;;;3.83;;
7835;SDS011;3963;42.658;23.298;2022-10-19T12:11:54;5.97;;;3.60;;
7835;SDS011;3963;42.658;23.298;2022-10-19T12:14:31;7.70;;;3.40;;
7835;SDS011;3963;42.658;23.298;2022-10-19T12:17:03;9.27;;;2.87;;
7835;SDS011;3963;42.658;23.298;2022-10-19T12:19:35;3.90;;;2.80;;
7835;SDS011;3963;42.658;23.298;2022-10-19T12:22:06;5.57;;;3.50;;
7835;SDS011;3963;42.658;23.298;2022-10-19T12:24:41;3.57;;;2.80;;
7835;SDS011;3963;42.658;23.298;2022-10-19T12:27:09;5.47;;;2.93;;
7835;SDS011;3963;42.658;23.298;2022-10-19T12:29:41;6.87;;;3.20;;
7835;SDS011;3963;42.658;23.298;2022-10-19T12:32:12;7.90;;;3.43;;
7835;SDS011;3963;42.658;23.298;2022-10-19T12:34:43;7.17;;;3.43;;
7835;SDS011;3963;42.658;23.298;2022-10-19T12:37:19;9.87;;;3.73;;
7835;SDS011;3963;42.658;23.298;2022-10-19T12:39:55;7.47;;;3.77;;
7835;SDS011;3963;42.658;23.298;2022-10-19T12:42:27;8.70;;;3.53;;
7835;SDS011;3963;42.658;23.298;2022-10-19T12:45:08;4.87;;;3.40;;
7835;SDS011;3963;42.658;23.298;2022-10-19T12:51:06;7.63;;;3.57;;
7835;SDS011;3963;42.658;23.298;2022-10-19T12:53:37;8.27;;;3.40;;
7835;SDS011;3963;42.658;23.298;2022-10-19T12:56:09;6.40;;;3.30;;
7835;SDS011;3963;42.658;23.298;2022-10-19T12:58:44;5.90;;;3.40;;
7835;SDS011;3963;42.658;23.298;2022-10-19T13:01:18;6.77;;;3.70;;
7835;SDS011;3963;42.658;23.298;2022-10-19T13:03:48;6.30;;;3.10;;
7835;SDS011;3963;42.658;23.298;2022-10-19T13:06:28;8.47;;;3.90;;
7835;SDS011;3963;42.658;23.298;2022-10-19T13:08:57;9.80;;;3.60;;
7835;SDS011;3963;42.658;23.298;2022-10-19T13:11:28;10.03;;;3.83;;
7835;SDS011;3963;42.658;23.298;2022-10-19T13:13:57;8.93;;;3.80;;
7835;SDS011;3963;42.658;23.298;2022-10-19T13:16:38;8.87;;;3.50;;
7835;SDS011;3963;42.658;23.298;2022-10-19T13:19:17;6.10;;;3.60;;
7835;SDS011;3963;42.658;23.298;2022-10-19T13:21:47;8.87;;;3.73;;
7835;SDS011;3963;42.658;23.298;2022-10-19T13:24:26;6.27;;;3.63;;
7835;SDS011;3963;42.658;23.298;2022-10-19T13:30:01;5.10;;;3.60;;
7835;SDS011;3963;42.658;23.298;2022-10-19T13:32:29;9.37;;;4.03;;
7835;SDS011;3963;42.658;23.298;2022-10-19T13:40:36;5.63;;;3.73;;
7835;SDS011;3963;42.658;23.298;2022-10-19T13:43:14;5.97;;;3.80;;
7835;SDS011;3963;42.658;23.298;2022-10-19T13:45:51;6.33;;;3.60;;
7835;SDS011;3963;42.658;23.298;2022-10-19T13:48:21;6.20;;;3.93;;
7835;SDS011;3963;42.658;23.298;2022-10-19T13:50:53;6.63;;;4.30;;
7835;SDS011;3963;42.658;23.298;2022-10-19T13:53:28;7.13;;;4.13;;
7835;SDS011;3963;42.658;23.298;2022-10-19T13:59:31;7.17;;;3.73;;
7835;SDS011;3963;42.658;23.298;2022-10-19T14:02:21;6.93;;;4.20;;
7835;SDS011;3963;42.658;23.298;2022-10-19T14:05:08;8.10;;;3.90;;
7835;SDS011;3963;42.658;23.298;2022-10-19T14:07:49;7.47;;;4.20;;
7835;SDS011;3963;42.658;23.298;2022-10-19T14:10:28;8.40;;;3.90;;
7835;SDS011;3963;42.658;23.298;2022-10-19T14:12:57;7.23;;;4.67;;
7835;SDS011;3963;42.658;23.298;2022-10-19T14:15:27;11.93;;;6.77;;
7835;SDS011;3963;42.658;23.298;2022-10-19T14:17:56;5.10;;;3.70;;
7835;SDS011;3963;42.658;23.298;2022-10-19T14:20:26;5.27;;;3.90;;
7835;SDS011;3963;42.658;23.298;2022-10-19T14:22:55;7.77;;;4.03;;
7835;SDS011;3963;42.658;23.298;2022-10-19T14:25:22;6.43;;;4.23;;
7835;SDS011;3963;42.658;23.298;2022-10-19T14:27:53;16.00;;;3.90;;
7835;SDS011;3963;42.658;23.298;2022-10-19T14:30:24;7.23;;;4.07;;
7835;SDS011;3963;42.658;23.298;2022-10-19T14:32:55;6.77;;;3.73;;
7835;SDS011;3963;42.658;23.298;2022-10-19T14:35:25;9.20;;;3.93;;
7835;SDS011;3963;42.658;23.298;2022-10-19T14:37:54;6.80;;;4.10;;
7835;SDS011;3963;42.658;23.298;2022-10-19T14:40:23;7.40;;;4.20;;
7835;SDS011;3963;42.658;23.298;2022-10-19T14:42:52;4.93;;;3.90;;
7835;SDS011;3963;42.658;23.298;2022-10-19T14:45:21;8.23;;;4.30;;
7835;SDS011;3963;42.658;23.298;2022-10-19T14:47:52;6.13;;;4.30;;
7835;SDS011;3963;42.658;23.298;2022-10-19T14:50:22;10.97;;;4.43;;
7835;SDS011;3963;42.658;23.298;2022-10-19T14:52:53;10.13;;;4.83;;
7835;SDS011;3963;42.658;23.298;2022-10-19T14:55:23;7.33;;;4.13;;
7835;SDS011;3963;42.658;23.298;2022-10-19T14:57:56;7.07;;;4.27;;
7835;SDS011;3963;42.658;23.298;2022-10-19T15:00:24;7.03;;;4.40;;
7835;SDS011;3963;42.658;23.298;2022-10-19T15:02:55;10.90;;;4.73;;
7835;SDS011;3963;42.658;23.298;2022-10-19T15:05:25;9.20;;;4.13;;
7835;SDS011;3963;42.658;23.298;2022-10-19T15:07:55;7.17;;;4.40;;
7835;SDS011;3963;42.658;23.298;2022-10-19T15:10:23;9.23;;;4.50;;
7835;SDS011;3963;42.658;23.298;2022-10-19T15:12:56;5.70;;;4.40;;
7835;SDS011;3963;42.658;23.298;2022-10-19T15:15:28;6.40;;;4.57;;
7835;SDS011;3963;42.658;23.298;2022-10-19T15:18:03;6.77;;;5.13;;
7835;SDS011;3963;42.658;23.298;2022-10-19T15:20:31;10.37;;;5.00;;
7835;SDS011;3963;42.658;23.298;2022-10-19T15:23:01;11.37;;;4.70;;
7835;SDS011;3963;42.658;23.298;2022-10-19T15:25:57;9.20;;;5.07;;
7835;SDS011;3963;42.658;23.298;2022-10-19T15:28:30;11.67;;;5.50;;
7835;SDS011;3963;42.658;23.298;2022-10-19T15:30:59;10.07;;;6.10;;
7835;SDS011;3963;42.658;23.298;2022-10-19T15:33:30;8.97;;;6.33;;
7835;SDS011;3963;42.658;23.298;2022-10-19T15:36:04;10.10;;;5.73;;